createdAt,value
2022-08-16T00:01:24.772Z,100633.22
2022-08-16T00:03:56.114Z,100635.97
2022-08-16T00:06:24.964Z,100641.31
2022-08-16T00:08:53.252Z,100625.59
2022-08-16T00:11:22.848Z,100625.41
2022-08-16T00:13:54.764Z,100625.25
2022-08-16T00:17:05.988Z,100625.59
2022-08-16T00:19:15.952Z,100634.41
2022-08-16T00:21:44.992Z,100634.41
2022-08-16T00:24:14.070Z,100640.63
2022-08-16T00:27:01.698Z,100637.69
2022-08-16T00:29:30.182Z,100629.03
2022-08-16T00:32:05.983Z,100630.75
2022-08-16T00:34:45.131Z,100623.84
2022-08-16T00:37:24.409Z,100622.28
2022-08-16T00:39:57.760Z,100617.78
2022-08-16T00:42:29.614Z,100603.69
2022-08-16T00:45:08.453Z,100617.09
2022-08-16T00:47:42.527Z,100617.09
2022-08-16T00:50:20.819Z,100616.13
2022-08-16T00:52:51.248Z,100613.63
2022-08-16T00:55:23.107Z,100624.34
2022-08-16T00:57:59.522Z,100615.19
2022-08-16T01:00:32.347Z,100624.16
2022-08-16T01:03:04.113Z,100625.91
2022-08-16T01:05:34.150Z,100616.84
2022-08-16T01:08:34.858Z,100615.03
2022-08-16T01:10:53.150Z,100613.28
2022-08-16T01:13:26.654Z,100616.41
2022-08-16T01:16:02.944Z,100603.44
2022-08-16T01:18:40.029Z,100609.31
2022-08-16T01:21:33.467Z,100615.03
2022-08-16T01:24:52.726Z,100620.38
2022-08-16T01:27:06.824Z,100606.41
2022-08-16T01:29:58.368Z,100602.09
2022-08-16T01:32:33.457Z,100603.94
2022-08-16T01:35:04.196Z,100602.09
2022-08-16T01:37:42.296Z,100597.03
2022-08-16T01:40:15.425Z,100597.19
2022-08-16T01:42:48.134Z,100590.44
2022-08-16T01:45:19.939Z,100587.03
2022-08-16T01:47:50.996Z,100589.16
2022-08-16T01:50:41.732Z,100588.38
2022-08-16T01:53:12.042Z,100592.00
2022-08-16T01:55:46.107Z,100593.44
2022-08-16T01:58:24.192Z,100596.25
2022-08-16T02:00:52.352Z,100583.03
2022-08-16T02:03:24.326Z,100570.75
2022-08-16T02:05:55.043Z,100577.06
2022-08-16T02:08:33.631Z,100583.38
2022-08-16T02:11:05.692Z,100581.78
2022-08-16T02:13:34.028Z,100583.84
2022-08-16T02:16:03.229Z,100580.25
2022-08-16T02:18:32.156Z,100587.16
2022-08-16T02:21:03.424Z,100595.66
2022-08-16T02:23:33.868Z,100595.97
2022-08-16T02:26:03.555Z,100596.59
2022-08-16T02:28:32.184Z,100586.53
2022-08-16T02:31:07.716Z,100585.75
2022-08-16T02:33:44.625Z,100585.75
2022-08-16T02:36:47.624Z,100587.25
2022-08-16T02:39:10.588Z,100587.88
2022-08-16T02:41:44.139Z,100585.25
2022-08-16T02:44:14.036Z,100589.06
2022-08-16T02:46:50.388Z,100589.06
2022-08-16T02:49:21.940Z,100585.44
2022-08-16T02:52:00.769Z,100590.09
2022-08-16T02:54:29.377Z,100580.41
2022-08-16T02:56:58.983Z,100574.88
2022-08-16T02:59:28.673Z,100574.88
2022-08-16T03:02:10.405Z,100562.56
2022-08-16T03:04:51.927Z,100560.88
2022-08-16T03:07:27.582Z,100566.22
2022-08-16T03:10:00.561Z,100560.88
2022-08-16T03:12:36.744Z,100557.56
2022-08-16T03:15:07.285Z,100562.94
2022-08-16T03:17:36.914Z,100552.22
2022-08-16T03:20:32.215Z,100562.47
2022-08-16T03:23:01.934Z,100557.00
2022-08-16T03:25:41.137Z,100560.72
2022-08-16T03:28:17.225Z,100553.19
2022-08-16T03:30:47.565Z,100565.66
2022-08-16T03:33:16.464Z,100556.97
2022-08-16T03:35:45.292Z,100555.22
2022-08-16T03:38:34.201Z,100557.28
2022-08-16T03:41:05.601Z,100548.63
2022-08-16T03:43:54.937Z,100556.41
2022-08-16T03:46:48.347Z,100555.56
2022-08-16T03:49:14.059Z,100557.28
2022-08-16T03:51:47.207Z,100548.16
2022-08-16T03:54:16.040Z,100540.75
2022-08-16T03:56:56.927Z,100550.25
2022-08-16T03:59:29.271Z,100547.97
2022-08-16T04:01:58.805Z,100540.75
2022-08-16T04:04:33.322Z,100526.53
2022-08-16T04:07:04.278Z,100540.25
2022-08-16T04:09:37.905Z,100533.78
2022-08-16T04:12:10.836Z,100527.81
2022-08-16T04:14:46.908Z,100528.16
2022-08-16T04:17:17.078Z,100535.06
2022-08-16T04:19:46.595Z,100535.06
2022-08-16T04:22:17.359Z,100529.38
2022-08-16T04:24:54.283Z,100543.88
2022-08-16T04:27:24.410Z,100542.16
2022-08-16T04:29:54.807Z,100542.16
2022-08-16T04:32:31.648Z,100533.94
2022-08-16T04:35:03.419Z,100533.16
2022-08-16T04:37:42.012Z,100538.19
2022-08-16T04:40:21.905Z,100530.41
2022-08-16T04:42:53.557Z,100522.28
2022-08-16T04:45:35.656Z,100527.22
2022-08-16T04:48:05.009Z,100521.78
2022-08-16T04:50:34.224Z,100519.34
2022-08-16T04:53:02.429Z,100522.91
2022-08-16T04:55:37.736Z,100535.00
2022-08-16T04:58:45.128Z,100526.34
2022-08-16T05:00:58.782Z,100530.09
2022-08-16T05:03:27.271Z,100529.94
2022-08-16T05:06:04.829Z,100530.97
2022-08-16T05:08:34.493Z,100529.94
2022-08-16T05:11:08.378Z,100537.00
2022-08-16T05:13:40.334Z,100529.59
2022-08-16T05:16:20.195Z,100522.69
2022-08-16T05:18:51.801Z,100525.63
2022-08-16T05:21:21.450Z,100515.75
2022-08-16T05:23:55.963Z,100528.22
2022-08-16T05:26:28.401Z,100525.44
2022-08-16T05:28:58.094Z,100520.25
2022-08-16T05:31:30.372Z,100519.56
2022-08-16T05:34:00.574Z,100512.47
2022-08-16T05:36:34.017Z,100516.78
2022-08-16T05:39:07.802Z,100488.28
2022-08-16T05:41:45.075Z,100506.06
2022-08-16T05:44:24.028Z,100496.13
2022-08-16T05:46:56.369Z,100517.41
2022-08-16T05:49:39.188Z,100506.78
2022-08-16T05:52:20.812Z,100515.59
2022-08-16T05:54:58.465Z,100512.66
2022-08-16T05:57:35.574Z,100506.94
2022-08-16T06:00:09.185Z,100506.69
2022-08-16T06:02:44.083Z,100499.69
2022-08-16T06:05:12.827Z,100504.53
2022-08-16T06:07:58.410Z,100499.84
2022-08-16T06:10:31.946Z,100479.09
2022-08-16T06:13:01.618Z,100507.13
2022-08-16T06:15:32.262Z,100506.13
2022-08-16T06:18:02.526Z,100504.88
2022-08-16T06:20:36.032Z,100495.03
2022-08-16T06:23:11.836Z,100496.06
2022-08-16T06:25:53.035Z,100489.38
2022-08-16T06:28:35.615Z,100477.78
2022-08-16T06:31:05.117Z,100484.78
2022-08-16T06:33:41.519Z,100461.97
2022-08-16T06:36:11.833Z,100489.63
2022-08-16T06:38:55.296Z,100492.91
2022-08-16T06:41:27.344Z,100496.19
2022-08-16T06:43:57.034Z,100486.97
2022-08-16T06:46:32.035Z,100485.81
2022-08-16T06:49:02.354Z,100491.00
2022-08-16T06:51:48.023Z,100482.78
2022-08-16T06:54:19.065Z,100495.44
2022-08-16T06:56:47.589Z,100500.59
2022-08-16T06:59:21.030Z,100490.25
2022-08-16T07:01:55.443Z,100494.56
2022-08-16T07:04:32.355Z,100473.97
2022-08-16T07:07:05.933Z,100473.75
2022-08-16T07:09:34.233Z,100482.06
2022-08-16T07:12:03.544Z,100467.31
2022-08-16T07:14:32.851Z,100477.69
2022-08-16T07:17:01.428Z,100476.72
2022-08-16T07:20:03.260Z,100477.13
2022-08-16T07:22:38.386Z,100478.09
2022-08-16T07:25:09.935Z,100475.97
2022-08-16T07:27:38.482Z,100479.53
2022-08-16T07:30:39.373Z,100472.13
2022-08-16T07:32:58.343Z,100477.31
2022-08-16T07:35:28.082Z,100489.50
2022-08-16T07:37:56.162Z,100470.41
2022-08-16T07:40:56.398Z,100498.63
2022-08-16T07:43:14.866Z,100500.38
2022-08-16T07:45:48.252Z,100498.06
2022-08-16T07:48:21.773Z,100492.69
2022-08-16T07:50:57.851Z,100478.25
2022-08-16T07:53:43.775Z,100483.06
2022-08-16T07:56:12.607Z,100482.47
2022-08-16T07:58:43.350Z,100480.34
2022-08-16T08:01:13.105Z,100493.34
2022-08-16T08:03:49.170Z,100495.47
2022-08-16T08:06:20.574Z,100493.34
2022-08-16T08:08:52.386Z,100489.66
2022-08-16T08:11:23.598Z,100484.84
2022-08-16T08:13:53.924Z,100483.72
2022-08-16T08:16:30.434Z,100495.66
2022-08-16T08:19:02.751Z,100493.34
2022-08-16T08:21:59.118Z,100494.84
2022-08-16T08:24:32.169Z,100487.69
2022-08-16T08:27:02.453Z,100480.44
2022-08-16T08:29:36.845Z,100478.97
2022-08-16T08:32:57.400Z,100481.31
2022-08-16T08:35:03.026Z,100485.53
2022-08-16T08:37:55.421Z,100487.44
2022-08-16T08:40:26.712Z,100492.16
2022-08-16T08:42:57.854Z,100483.94
2022-08-16T08:45:47.995Z,100483.97
2022-08-16T08:48:34.341Z,100481.06
2022-08-16T08:51:04.650Z,100482.59
2022-08-16T08:53:36.293Z,100481.66
2022-08-16T08:56:23.496Z,100475.50
2022-08-16T08:58:54.013Z,100492.72
2022-08-16T09:01:31.977Z,100500.84
2022-08-16T09:04:06.547Z,100508.00
2022-08-16T09:06:35.632Z,100496.16
2022-08-16T09:09:16.544Z,100500.34
2022-08-16T09:12:04.164Z,100506.56
2022-08-16T09:14:36.293Z,100500.94
2022-08-16T09:17:11.939Z,100506.09
2022-08-16T09:19:55.149Z,100498.72
2022-08-16T09:22:25.290Z,100476.88
2022-08-16T09:25:09.653Z,100495.56
2022-08-16T09:27:56.516Z,100498.03
2022-08-16T09:30:33.409Z,100498.66
2022-08-16T09:33:07.545Z,100501.72
2022-08-16T09:35:39.057Z,100489.19
2022-08-16T09:38:08.612Z,100483.28
2022-08-16T09:40:42.564Z,100497.09
2022-08-16T09:43:37.803Z,100501.75
2022-08-16T09:46:01.130Z,100496.34
2022-08-16T09:48:44.294Z,100499.78
2022-08-16T09:51:19.501Z,100501.63
2022-08-16T09:53:53.739Z,100499.03
2022-08-16T09:56:28.638Z,100501.72
2022-08-16T09:59:03.746Z,100490.16
2022-08-16T10:01:36.631Z,100500.16
2022-08-16T10:04:29.735Z,100501.75
2022-08-16T10:06:55.558Z,100507.66
2022-08-16T10:09:54.405Z,100494.75
2022-08-16T10:12:42.702Z,100496.06
2022-08-16T10:15:16.187Z,100501.97
2022-08-16T10:18:00.620Z,100499.75
2022-08-16T10:20:32.658Z,100503.81
2022-08-16T10:23:07.300Z,100506.75
2022-08-16T10:27:20.111Z,100500.09
2022-08-16T10:28:32.585Z,100497.50
2022-08-16T10:31:12.047Z,100503.63
2022-08-16T10:33:46.278Z,100501.28
2022-08-16T10:36:39.028Z,100510.41
2022-08-16T10:39:04.347Z,100508.38
2022-08-16T10:41:33.116Z,100513.03
2022-08-16T10:44:03.092Z,100516.97
2022-08-16T10:46:33.815Z,100514.03
2022-08-16T10:49:10.250Z,100506.59
2022-08-16T10:52:03.088Z,100512.75
2022-08-16T10:54:29.599Z,100500.97
2022-08-16T10:56:59.297Z,100495.13
2022-08-16T10:59:32.809Z,100494.34
2022-08-16T11:02:58.530Z,100471.16
2022-08-16T11:05:11.624Z,100485.09
2022-08-16T11:07:43.658Z,100488.81
2022-08-16T11:16:00.372Z,100474.28
2022-08-16T11:19:03.130Z,100473.78
2022-08-16T11:21:29.445Z,100479.41
2022-08-16T11:24:42.572Z,100476.63
2022-08-16T11:27:20.431Z,100479.78
2022-08-16T11:29:55.142Z,100472.28
2022-08-16T11:32:31.181Z,100487.75
2022-08-16T11:35:10.839Z,100482.38
2022-08-16T11:40:40.632Z,100467.34
2022-08-16T11:43:16.586Z,100476.66
2022-08-16T11:45:54.108Z,100462.84
2022-08-16T11:48:29.479Z,100468.25
2022-08-16T11:50:59.089Z,100467.13
2022-08-16T11:53:29.129Z,100465.09
2022-08-16T11:56:04.837Z,100468.22
2022-08-16T11:58:35.346Z,100461.56
2022-08-16T12:01:03.528Z,100454.78
2022-08-16T12:03:34.784Z,100462.09
2022-08-16T12:06:11.265Z,100463.69
2022-08-16T12:09:02.170Z,100474.47
2022-08-16T12:11:33.310Z,100457.41
2022-08-16T12:14:01.791Z,100456.25
2022-08-16T12:16:34.093Z,100453.59
2022-08-16T12:19:05.113Z,100448.19
2022-08-16T12:21:35.895Z,100437.13
2022-08-16T12:24:23.887Z,100456.63
2022-08-16T12:26:52.360Z,100438.47
2022-08-16T12:29:21.205Z,100442.28
2022-08-16T12:32:00.505Z,100440.97
2022-08-16T12:34:47.938Z,100439.28
2022-08-16T12:37:19.568Z,100428.72
2022-08-16T12:39:51.304Z,100458.44
2022-08-16T12:42:24.442Z,100461.38
2022-08-16T12:45:03.431Z,100454.19
2022-08-16T12:47:49.348Z,100459.16
2022-08-16T12:50:19.309Z,100452.22
2022-08-16T12:52:52.949Z,100458.84
2022-08-16T12:55:24.051Z,100467.50
2022-08-16T12:58:02.643Z,100453.94
2022-08-16T13:00:46.533Z,100469.75
2022-08-16T13:03:26.670Z,100476.88
2022-08-16T13:05:58.222Z,100471.44
2022-08-16T13:08:27.538Z,100467.25
2022-08-16T13:11:00.299Z,100471.94
2022-08-16T13:13:33.086Z,100445.28
2022-08-16T13:16:15.510Z,100416.25
2022-08-16T13:18:52.337Z,100472.69
2022-08-16T13:21:27.524Z,100445.81
2022-08-16T13:23:55.987Z,100473.63
2022-08-16T13:26:26.402Z,100482.25
2022-08-16T13:28:55.005Z,100477.53
2022-08-16T13:31:23.867Z,100484.13
2022-08-16T13:33:54.529Z,100467.34
2022-08-16T13:39:17.384Z,100483.47
2022-08-16T13:41:54.200Z,100471.22
2022-08-16T13:44:36.036Z,100474.63
2022-08-16T13:47:11.673Z,100467.94
2022-08-16T13:49:43.326Z,100475.59
2022-08-16T13:52:14.039Z,100482.59
2022-08-16T13:54:42.673Z,100468.94
2022-08-16T13:57:11.573Z,100475.03
2022-08-16T13:59:41.455Z,100481.22
2022-08-16T14:02:11.439Z,100484.22
2022-08-16T14:04:41.650Z,100481.13
2022-08-16T14:07:19.922Z,100475.50
2022-08-16T14:09:55.261Z,100483.47
2022-08-16T14:12:26.959Z,100482.88
2022-08-16T14:14:57.460Z,100475.06
2022-08-16T14:17:26.977Z,100486.09
2022-08-16T14:19:59.917Z,100488.50
2022-08-16T14:22:35.675Z,100495.63
2022-08-16T14:25:11.164Z,100490.66
2022-08-16T14:27:45.047Z,100490.88
2022-08-16T14:30:16.623Z,100489.13
2022-08-16T14:32:46.844Z,100490.22
2022-08-16T14:35:36.601Z,100460.69
2022-08-16T14:38:13.535Z,100488.84
2022-08-16T14:40:52.819Z,100487.44
2022-08-16T14:43:23.876Z,100483.59
2022-08-16T14:45:55.898Z,100495.41
2022-08-16T14:48:26.271Z,100493.28
2022-08-16T14:50:55.393Z,100481.25
2022-08-16T14:53:26.608Z,100491.34
2022-08-16T14:55:54.842Z,100476.25
2022-08-16T14:58:35.146Z,100488.66
2022-08-16T15:01:10.237Z,100488.13
2022-08-16T15:03:38.804Z,100487.09
2022-08-16T15:06:16.282Z,100487.63
2022-08-16T15:08:48.522Z,100485.34
2022-08-16T15:11:19.291Z,100499.31
2022-08-16T15:13:49.730Z,100501.69
2022-08-16T15:16:20.072Z,100504.31
2022-08-16T15:18:49.085Z,100507.13
2022-08-16T15:21:18.288Z,100507.13
2022-08-16T15:23:48.508Z,100487.72
2022-08-16T15:26:18.810Z,100493.38
2022-08-16T15:29:06.304Z,100513.63
2022-08-16T15:31:36.570Z,100500.06
2022-08-16T15:34:05.347Z,100512.25
2022-08-16T15:36:34.293Z,100504.78
2022-08-16T15:39:30.223Z,100506.53
2022-08-16T15:42:07.335Z,100524.19
2022-08-16T15:44:52.032Z,100521.41
2022-08-16T15:47:26.426Z,100500.47
2022-08-16T15:49:56.133Z,100518.94
2022-08-16T15:52:29.708Z,100523.78
2022-08-16T15:55:12.754Z,100482.63
2022-08-16T15:57:45.134Z,100468.41
2022-08-16T16:00:15.775Z,100498.56
2022-08-16T16:02:45.346Z,100483.56
2022-08-16T16:05:14.549Z,100507.06
2022-08-16T16:07:56.586Z,100512.03
2022-08-16T16:10:37.576Z,100498.34
2022-08-16T16:13:09.432Z,100466.72
2022-08-16T16:15:40.620Z,100486.88
2022-08-16T16:18:12.027Z,100490.75
2022-08-16T16:20:43.906Z,100506.06
2022-08-16T16:23:12.461Z,100494.94
2022-08-16T16:25:44.710Z,100502.38
2022-08-16T16:29:05.958Z,100500.22
2022-08-16T16:31:06.005Z,100497.28
2022-08-16T16:33:37.153Z,100513.44
2022-08-16T16:36:07.219Z,100513.53
2022-08-16T16:38:36.270Z,100499.09
2022-08-16T16:41:11.912Z,100511.84
2022-08-16T16:43:42.656Z,100514.56
2022-08-16T16:46:39.044Z,100532.09
2022-08-16T16:49:08.681Z,100529.22
2022-08-16T16:51:41.253Z,100524.41
2022-08-16T16:54:22.473Z,100526.16
2022-08-16T16:56:58.984Z,100524.78
2022-08-16T16:59:28.387Z,100540.38
2022-08-16T17:02:01.542Z,100534.06
2022-08-16T17:04:47.213Z,100550.00
2022-08-16T17:07:23.870Z,100557.91
2022-08-16T17:09:52.967Z,100552.31
2022-08-16T17:12:25.137Z,100552.91
2022-08-16T17:14:54.045Z,100547.34
2022-08-16T17:17:22.746Z,100548.50
2022-08-16T17:19:51.388Z,100555.22
2022-08-16T17:22:22.201Z,100553.88
2022-08-16T17:24:53.339Z,100547.88
2022-08-16T17:27:32.812Z,100543.94
2022-08-16T17:30:03.214Z,100537.91
2022-08-16T17:32:48.193Z,100533.78
2022-08-16T17:35:20.665Z,100535.28
2022-08-16T17:37:52.165Z,100537.06
2022-08-16T17:40:40.574Z,100532.03
2022-08-16T17:43:14.971Z,100526.78
2022-08-16T17:45:45.073Z,100531.44
2022-08-16T17:48:13.761Z,100534.38
2022-08-16T17:50:43.605Z,100513.56
2022-08-16T17:53:12.879Z,100518.78
2022-08-16T17:55:47.489Z,100523.38
2022-08-16T17:58:22.734Z,100522.44
2022-08-16T18:00:53.458Z,100520.34
2022-08-16T18:04:02.334Z,100520.59
2022-08-16T18:06:17.017Z,100530.00
2022-08-16T18:08:48.919Z,100522.41
2022-08-16T18:11:26.127Z,100530.66
2022-08-16T18:13:56.729Z,100529.72
2022-08-16T18:16:25.731Z,100511.91
2022-08-16T18:18:54.106Z,100538.06
2022-08-16T18:21:40.923Z,100540.44
2022-08-16T18:24:10.315Z,100545.91
2022-08-16T18:26:39.045Z,100550.22
2022-08-16T18:29:09.119Z,100571.88
2022-08-16T18:31:37.525Z,100566.31
2022-08-16T18:34:07.229Z,100582.03
2022-08-16T18:36:37.326Z,100583.19
2022-08-16T18:39:05.875Z,100579.56
2022-08-16T18:41:37.179Z,100575.09
2022-08-16T18:44:25.358Z,100593.78
2022-08-16T18:46:57.708Z,100598.63
2022-08-16T18:49:26.106Z,100605.69
2022-08-16T18:51:58.285Z,100608.66
2022-08-16T18:54:28.707Z,100616.44
2022-08-16T18:56:58.268Z,100609.81
2022-08-16T18:59:28.765Z,100615.06
2022-08-16T19:02:04.197Z,100628.56
2022-08-16T19:04:54.879Z,100630.63
2022-08-16T19:07:29.633Z,100626.97
2022-08-16T19:09:59.072Z,100606.59
2022-08-16T19:12:38.020Z,100627.44
2022-08-16T19:15:19.121Z,100633.63
2022-08-16T19:17:49.329Z,100645.41
2022-08-16T19:20:20.665Z,100656.97
2022-08-16T19:23:04.437Z,100657.19
2022-08-16T19:25:47.926Z,100659.06
2022-08-16T19:28:49.812Z,100632.81
2022-08-16T19:31:11.120Z,100652.16
2022-08-16T19:33:42.232Z,100663.66
2022-08-16T19:36:31.956Z,100666.06
2022-08-16T19:39:04.581Z,100669.28
2022-08-16T19:41:35.698Z,100665.84
2022-08-16T19:44:05.181Z,100670.50
2022-08-16T19:46:33.615Z,100666.25
2022-08-16T19:49:03.421Z,100667.41
2022-08-16T19:51:31.752Z,100663.75
2022-08-16T19:54:00.445Z,100679.50
2022-08-16T19:56:28.797Z,100670.31
2022-08-16T19:59:18.037Z,100670.84
2022-08-16T20:01:46.653Z,100674.63
2022-08-16T20:04:16.745Z,100669.63
2022-08-16T20:06:44.921Z,100676.22
2022-08-16T20:09:16.399Z,100689.28
2022-08-16T20:11:45.883Z,100677.22
2022-08-16T20:14:19.247Z,100699.91
2022-08-16T20:16:55.829Z,100699.91
2022-08-16T20:19:35.186Z,100705.78
2022-08-16T20:22:51.853Z,100703.22
2022-08-16T20:25:18.120Z,100709.44
2022-08-16T20:27:47.245Z,100711.41
2022-08-16T20:30:17.934Z,100711.34
2022-08-16T20:32:48.485Z,100724.16
2022-08-16T20:35:21.572Z,100723.59
2022-08-16T20:37:50.161Z,100721.69
2022-08-16T20:40:34.300Z,100722.97
2022-08-16T20:43:06.679Z,100733.69
2022-08-16T20:45:35.458Z,100717.13
2022-08-16T20:48:04.006Z,100738.13
2022-08-16T20:50:34.294Z,100733.09
2022-08-16T20:53:03.224Z,100724.97
2022-08-16T20:55:32.447Z,100731.19
2022-08-16T20:58:00.944Z,100711.75
2022-08-16T21:00:29.408Z,100721.06
2022-08-16T21:02:57.987Z,100729.13
2022-08-16T21:05:31.268Z,100734.94
2022-08-16T21:08:50.346Z,100716.06
2022-08-16T21:10:52.061Z,100708.34
2022-08-16T21:13:21.950Z,100732.94
2022-08-16T21:15:51.867Z,100742.38
2022-08-16T21:18:20.238Z,100732.41
2022-08-16T21:20:48.617Z,100728.84
2022-08-16T21:23:19.157Z,100752.00
2022-08-16T21:25:58.944Z,100750.28
2022-08-16T21:28:41.237Z,100709.25
2022-08-16T21:31:11.158Z,100734.84
2022-08-16T21:33:39.518Z,100753.09
2022-08-16T21:36:09.484Z,100751.84
2022-08-16T21:38:40.830Z,100754.06
2022-08-16T21:41:11.516Z,100733.50
2022-08-16T21:43:41.381Z,100747.66
2022-08-16T21:46:10.811Z,100743.69
2022-08-16T21:48:40.555Z,100748.53
2022-08-16T21:51:14.874Z,100752.81
2022-08-16T21:53:50.121Z,100748.81
2022-08-16T21:56:19.192Z,100760.06
2022-08-16T21:58:53.311Z,100741.31
2022-08-16T22:01:23.597Z,100758.34
2022-08-16T22:04:35.736Z,100760.53
2022-08-16T22:06:42.894Z,100768.19
2022-08-16T22:09:16.501Z,100757.25
2022-08-16T22:11:47.210Z,100761.03
2022-08-16T22:14:16.101Z,100766.84
2022-08-16T22:16:47.355Z,100762.75
2022-08-16T22:19:16.323Z,100765.19
2022-08-16T22:21:47.515Z,100769.69
2022-08-16T22:24:19.059Z,100778.69
2022-08-16T22:26:47.941Z,100777.81
2022-08-16T22:29:19.875Z,100735.91
2022-08-16T22:31:48.966Z,100764.31
2022-08-16T22:34:18.387Z,100738.72
2022-08-16T22:36:48.240Z,100803.97
2022-08-16T22:39:19.221Z,100783.94
2022-08-16T22:41:50.374Z,100790.31
2022-08-16T22:44:19.741Z,100801.03
2022-08-16T22:46:49.033Z,100804.66
2022-08-16T22:49:18.059Z,100791.56
2022-08-16T22:51:49.320Z,100798.44
2022-08-16T22:54:44.225Z,100799.31
2022-08-16T22:57:09.954Z,100802.03
2022-08-16T22:59:38.575Z,100777.00
2022-08-16T23:02:10.401Z,100804.94
2022-08-16T23:04:39.485Z,100788.00
2022-08-16T23:07:08.221Z,100804.66
2022-08-16T23:09:38.266Z,100801.34
2022-08-16T23:12:07.690Z,100802.78
2022-08-16T23:14:37.245Z,100805.75
2022-08-16T23:17:05.394Z,100801.53
2022-08-16T23:19:34.262Z,100788.88
2022-08-16T23:22:02.432Z,100799.72
2022-08-16T23:24:37.092Z,100793.72
2022-08-16T23:27:18.782Z,100807.28
2022-08-16T23:29:47.416Z,100796.38
2022-08-16T23:32:19.134Z,100799.88
2022-08-16T23:34:47.328Z,100801.75
2022-08-16T23:37:20.029Z,100801.91
2022-08-16T23:39:48.685Z,100804.28
2022-08-16T23:42:52.560Z,100796.06
2022-08-16T23:45:12.648Z,100797.94
2022-08-16T23:47:41.082Z,100800.47
2022-08-16T23:50:10.406Z,100804.09
2022-08-16T23:52:54.590Z,100807.69
2022-08-16T23:55:24.309Z,100790.19
2022-08-16T23:57:54.379Z,100779.94
